Terminal Aerodrome Forecast
Issued by NWS Portland, ME

Home | Current Version | Previous Version | Text Only | Print | Product List | Glossary On
Versions: 1 2 3 4 5 6 7 8 9 10 11 12 13 14 15 16
969
FTUS41 KGYX 232320
TAFCON
TAF
KCON 232320Z 2400/2424 31007KT P6SM SCT250
     FM240600 00000KT P6SM SCT120 BKN200
     FM241400 18008KT P6SM VCSH BKN025 OVC060
     FM242000 20009KT 3SM -RASN BKN009 OVC025=

USA.gov is the U.S. government's official web portal to all federal, state and local government web resources and services.